Time;durP1;ratioP1;P1;durP2;ratioP2;P2;SDS_P1;SDS_P2;PMS_P1;PMS_P2;Temp;Humidity;BMP_temperature;BMP_pressure;BME280_temperature;BME280_humidity;BME280_pressure;Samples;Min_cycle;Max_cycle;Signal;HPM_P1;HPM_P2
2022/08/30 17:20:32;;;;;;;4.57;2.42;;;23.70;59.70;;;;;;5066138;27;20518;-64
2022/08/30 17:22:58;;;;;;;4.95;2.58;;;23.60;59.90;;;;;;5053502;28;21364;-67
2022/08/30 17:25:24;;;;;;;3.85;2.45;;;23.60;60.30;;;;;;5054054;28;20037;-62
2022/08/30 17:27:50;;;;;;;5.40;2.00;;;23.50;60.20;;;;;;5054815;28;20071;-61
2022/08/30 17:30:16;;;;;;;3.50;2.22;;;23.50;60.10;;;;;;5048018;28;20423;-60
2022/08/30 17:32:42;;;;;;;3.72;2.35;;;23.50;60.70;;;;;;5050840;28;20044;-61
2022/08/30 17:35:09;;;;;;;3.25;2.53;;;23.40;61.00;;;;;;5056018;28;20041;-61
2022/08/30 17:37:34;;;;;;;2.85;2.10;;;23.40;60.80;;;;;;5055745;28;20029;-61
2022/08/30 17:40:01;;;;;;;3.65;2.13;;;23.30;61.90;;;;;;5055608;28;20090;-62
2022/08/30 17:42:27;;;;;;;4.25;2.33;;;23.20;62.20;;;;;;5051780;28;20032;-60
2022/08/30 17:44:53;;;;;;;4.07;2.15;;;23.20;62.80;;;;;;5055640;28;20075;-63
2022/08/30 17:47:19;;;;;;;5.63;2.42;;;23.10;62.80;;;;;;5054193;28;20060;-60
2022/08/30 17:49:45;;;;;;;4.95;2.47;;;23.00;62.90;;;;;;5054750;28;20393;-63
2022/08/30 17:52:11;;;;;;;8.55;2.22;;;22.80;63.10;;;;;;5050116;28;20033;-61
2022/08/30 17:54:37;;;;;;;5.32;2.53;;;22.70;64.30;;;;;;5051644;28;20051;-60
2022/08/30 17:57:06;;;;;;;4.50;2.13;;;22.60;63.20;;;;;;5053605;28;20116;-60
2022/08/30 17:59:33;;;;;;;4.22;2.03;;;22.50;64.20;;;;;;5053306;28;20043;-64
2022/08/30 18:02:01;;;;;;;3.08;2.38;;;22.50;65.00;;;;;;5055936;28;20025;-63
2022/08/30 18:04:27;;;;;;;3.63;2.70;;;22.40;65.20;;;;;;5049145;28;20109;-64
2022/08/30 18:06:53;;;;;;;8.43;2.80;;;22.30;65.50;;;;;;5055585;28;20047;-61
2022/08/30 18:09:19;;;;;;;2.95;2.20;;;22.20;66.00;;;;;;5056159;28;20056;-63
2022/08/30 18:11:45;;;;;;;3.88;2.50;;;22.10;66.30;;;;;;5051352;28;20044;-60
2022/08/30 18:14:11;;;;;;;3.83;2.60;;;22.00;66.10;;;;;;5054116;28;20382;-62
2022/08/30 18:16:38;;;;;;;3.72;2.55;;;22.00;66.60;;;;;;5052674;28;20035;-60
2022/08/30 18:19:05;;;;;;;3.60;2.35;;;21.90;68.00;;;;;;5052275;28;20563;-63
2022/08/30 18:21:31;;;;;;;3.80;2.42;;;21.80;68.10;;;;;;5052998;28;20104;-63
2022/08/30 18:23:56;;;;;;;7.40;2.75;;;21.80;68.40;;;;;;5053651;28;20985;-66
2022/08/30 18:26:23;;;;;;;3.97;2.20;;;21.70;69.30;;;;;;5051114;28;20094;-62
2022/08/30 18:28:49;;;;;;;4.40;2.33;;;21.60;69.90;;;;;;5051884;28;20037;-66
2022/08/30 18:31:15;;;;;;;4.75;2.40;;;21.50;70.40;;;;;;5041578;28;20029;-63
2022/08/30 18:33:41;;;;;;;3.05;2.70;;;21.40;71.80;;;;;;5035800;28;20033;-64
2022/08/30 18:36:07;;;;;;;2.78;2.53;;;21.30;73.90;;;;;;5038173;28;20476;-61
2022/08/30 18:38:33;;;;;;;4.55;2.53;;;21.30;74.80;;;;;;5041783;28;20033;-66
2022/08/30 18:41:02;;;;;;;3.97;2.53;;;21.20;75.90;;;;;;5040017;28;20044;-63
2022/08/30 18:43:29;;;;;;;2.45;2.17;;;21.10;79.00;;;;;;5039728;28;20029;-64
2022/08/30 18:45:55;;;;;;;2.72;2.10;;;21.10;80.30;;;;;;5033469;28;20036;-64
2022/08/30 18:48:21;;;;;;;3.95;2.95;;;21.00;82.30;;;;;;5039502;28;20537;-63
2022/08/30 18:50:47;;;;;;;3.40;2.53;;;20.90;83.60;;;;;;5036121;28;20076;-60
2022/08/30 18:53:14;;;;;;;4.13;2.83;;;20.90;86.10;;;;;;5038893;28;20032;-63
2022/08/30 18:55:40;;;;;;;5.40;2.42;;;20.90;90.00;;;;;;5034774;28;20041;-61
2022/08/30 18:58:06;;;;;;;5.55;2.90;;;20.80;91.30;;;;;;5037483;28;20037;-61
2022/08/30 19:00:32;;;;;;;4.47;2.88;;;20.70;92.40;;;;;;5037518;28;20038;-68
2022/08/30 19:02:58;;;;;;;8.02;2.42;;;20.70;93.90;;;;;;5039557;28;20112;-60
2022/08/30 19:05:24;;;;;;;5.05;3.50;;;20.70;95.60;;;;;;5039863;28;20121;-65
2022/08/30 19:07:50;;;;;;;5.45;2.85;;;20.60;96.50;;;;;;5034800;28;20060;-64
2022/08/30 19:10:20;;;;;;;3.08;2.72;;;20.60;98.10;;;;;;5034932;28;20087;-61
2022/08/30 19:12:45;;;;;;;5.13;2.75;;;20.60;99.90;;;;;;5037534;28;20690;-61
2022/08/30 19:15:11;;;;;;;4.70;2.13;;;20.50;99.90;;;;;;5040129;28;20075;-61
2022/08/30 19:17:39;;;;;;;3.95;2.53;;;20.40;99.90;;;;;;5036068;28;20030;-60
2022/08/30 19:20:07;;;;;;;2.92;2.72;;;20.40;99.90;;;;;;5037324;28;20044;-60
2022/08/30 19:22:32;;;;;;;5.60;2.70;;;20.40;99.90;;;;;;5039438;28;20033;-61
2022/08/30 19:24:58;;;;;;;5.40;2.90;;;20.30;99.90;;;;;;5038472;28;20373;-63
2022/08/30 19:27:24;;;;;;;4.05;3.13;;;20.20;99.90;;;;;;5037163;28;20438;-64
2022/08/30 19:29:50;;;;;;;3.08;2.63;;;20.20;99.90;;;;;;5039795;28;20040;-67
2022/08/30 19:32:15;;;;;;;7.75;2.70;;;20.20;99.90;;;;;;5036245;28;20028;-60
2022/08/30 19:34:41;;;;;;;4.47;2.75;;;20.10;99.90;;;;;;5033693;28;20026;-60
2022/08/30 19:37:07;;;;;;;4.82;3.25;;;20.00;99.90;;;;;;5036553;28;20112;-61
2022/08/30 19:39:33;;;;;;;5.30;3.00;;;20.00;99.90;;;;;;5038581;28;20588;-60
2022/08/30 19:41:59;;;;;;;3.42;2.92;;;19.90;99.90;;;;;;5037032;28;20017;-62
2022/08/30 19:44:24;;;;;;;5.18;3.15;;;19.80;99.90;;;;;;5040900;28;20033;-66
2022/08/30 19:46:51;;;;;;;4.82;3.35;;;19.80;99.90;;;;;;5036544;28;20024;-68
2022/08/30 19:49:17;;;;;;;5.10;3.17;;;19.70;99.90;;;;;;5035666;28;20087;-63
2022/08/30 19:51:42;;;;;;;7.53;3.10;;;19.60;99.90;;;;;;5041689;28;20025;-63
2022/08/30 19:54:08;;;;;;;3.05;2.75;;;19.50;99.90;;;;;;5037204;28;20595;-60
2022/08/30 19:56:34;;;;;;;9.32;3.15;;;19.50;99.90;;;;;;5039670;28;20025;-60
2022/08/30 19:59:00;;;;;;;8.00;3.72;;;19.40;99.90;;;;;;5035180;28;20040;-63
2022/08/30 20:01:26;;;;;;;5.28;2.90;;;19.40;99.90;;;;;;5030841;28;20025;-63
2022/08/30 20:03:51;;;;;;;3.40;3.00;;;19.30;99.90;;;;;;5043741;28;20056;-64
2022/08/30 20:06:17;;;;;;;5.35;3.03;;;19.20;99.90;;;;;;5037149;28;20025;-64
2022/08/30 20:08:44;;;;;;;6.38;4.18;;;19.20;99.90;;;;;;5036423;28;20044;-64
2022/08/30 20:11:14;;;;;;;4.28;3.30;;;19.10;99.90;;;;;;5032595;28;20432;-61
2022/08/30 20:13:40;;;;;;;4.75;3.40;;;19.10;99.90;;;;;;5030769;28;20505;-61
2022/08/30 20:16:06;;;;;;;3.70;2.92;;;19.00;99.90;;;;;;5036174;28;20026;-65
2022/08/30 20:18:31;;;;;;;6.32;3.22;;;18.90;99.90;;;;;;5034883;28;20029;-62
2022/08/30 20:20:57;;;;;;;3.50;2.80;;;18.80;99.90;;;;;;5036795;28;20024;-65
2022/08/30 20:23:23;;;;;;;6.68;3.33;;;18.70;99.90;;;;;;5039656;28;20445;-61
2022/08/30 20:25:51;;;;;;;5.32;3.13;;;18.60;99.90;;;;;;5030000;28;20103;-64
2022/08/30 20:28:19;;;;;;;3.38;2.90;;;18.50;99.90;;;;;;5040023;28;20119;-61
2022/08/30 20:30:45;;;;;;;5.07;3.40;;;18.40;99.90;;;;;;5038698;28;20575;-60
2022/08/30 20:33:10;;;;;;;4.88;3.58;;;18.30;99.90;;;;;;5037581;28;20029;-60
2022/08/30 20:35:37;;;;;;;10.75;3.40;;;18.30;99.90;;;;;;5032642;28;20080;-60
2022/08/30 20:38:05;;;;;;;6.03;4.03;;;18.10;99.90;;;;;;5044780;28;20025;-60
2022/08/30 20:40:33;;;;;;;3.75;3.38;;;18.10;99.90;;;;;;5040910;28;20029;-60
2022/08/30 20:43:00;;;;;;;6.95;3.55;;;18.10;99.90;;;;;;5033703;28;20025;-59
2022/08/30 20:45:25;;;;;;;7.28;3.45;;;18.00;99.90;;;;;;5036445;28;20407;-67
2022/08/30 20:47:51;;;;;;;4.43;3.15;;;17.90;99.90;;;;;;5036660;28;20041;-64
2022/08/30 20:50:17;;;;;;;6.20;3.13;;;17.90;99.90;;;;;;5038061;28;20116;-60
2022/08/30 20:52:44;;;;;;;3.88;3.58;;;17.90;99.90;;;;;;5035869;28;20076;-60
2022/08/30 20:55:12;;;;;;;3.97;3.58;;;17.80;99.90;;;;;;5032896;28;20025;-60
2022/08/30 20:57:38;;;;;;;7.38;3.88;;;17.80;99.90;;;;;;5037634;28;20037;-60
2022/08/30 21:00:07;;;;;;;6.68;4.13;;;17.70;99.90;;;;;;5035892;28;20523;-66
2022/08/30 21:02:34;;;;;;;5.05;3.92;;;17.70;99.90;;;;;;5034026;28;20021;-60
2022/08/30 21:05:00;;;;;;;4.93;4.03;;;17.70;99.90;;;;;;5030335;28;20030;-60
2022/08/30 21:07:26;;;;;;;4.07;3.70;;;17.70;99.90;;;;;;5038406;28;20028;-65
2022/08/30 21:09:52;;;;;;;6.03;3.63;;;17.70;99.90;;;;;;5036301;28;20067;-62
2022/08/30 21:12:19;;;;;;;4.80;4.40;;;17.70;99.90;;;;;;5033494;28;20025;-65
2022/08/30 21:14:44;;;;;;;4.57;4.22;;;17.70;99.90;;;;;;5030042;28;20037;-66
2022/08/30 21:17:10;;;;;;;5.32;4.15;;;17.80;99.90;;;;;;5032247;28;20032;-60
2022/08/30 21:19:37;;;;;;;5.45;4.18;;;17.80;99.90;;;;;;5035053;28;20788;-61
2022/08/30 21:22:04;;;;;;;4.22;3.83;;;17.80;99.90;;;;;;5037878;28;20030;-60
2022/08/30 21:24:30;;;;;;;4.28;3.88;;;17.80;99.90;;;;;;5035668;28;20024;-62
2022/08/30 21:26:57;;;;;;;4.55;4.15;;;17.90;99.90;;;;;;5032027;28;20029;-62
2022/08/30 21:29:23;;;;;;;4.53;4.13;;;17.90;99.90;;;;;;5034996;28;20030;-65
2022/08/30 21:31:49;;;;;;;5.00;4.30;;;17.90;99.90;;;;;;5037776;28;20037;-60
2022/08/30 21:34:16;;;;;;;4.15;3.75;;;17.80;99.90;;;;;;5040316;28;20021;-61
2022/08/30 21:36:45;;;;;;;4.45;4.05;;;17.70;99.90;;;;;;5034117;28;20041;-63
2022/08/30 21:39:21;;;;;;;4.88;3.95;;;17.60;99.90;;;;;;5031955;28;20057;-64
2022/08/30 21:41:49;;;;;;;4.45;3.70;;;17.50;99.90;;;;;;5036762;28;20041;-63
2022/08/30 21:44:21;;;;;;;6.07;4.05;;;17.50;99.90;;;;;;5035469;28;20038;-59
2022/08/30 21:46:47;;;;;;;7.18;4.82;;;17.40;99.90;;;;;;5036982;28;20033;-60
2022/08/30 21:49:16;;;;;;;4.57;4.15;;;17.30;99.90;;;;;;5036767;28;20112;-63
2022/08/30 21:51:44;;;;;;;5.57;5.00;;;17.20;99.90;;;;;;5031979;28;20108;-66
2022/08/30 21:54:11;;;;;;;4.68;4.25;;;17.20;99.90;;;;;;5032561;28;20079;-61
2022/08/30 21:56:38;;;;;;;5.70;4.93;;;17.20;99.90;;;;;;5035789;28;20028;-60
2022/08/30 21:59:06;;;;;;;9.40;4.13;;;17.20;99.90;;;;;;5035563;28;20039;-60
2022/08/30 22:01:32;;;;;;;7.53;4.68;;;17.10;99.90;;;;;;5037529;28;20384;-68
2022/08/30 22:04:00;;;;;;;5.18;4.60;;;17.10;99.90;;;;;;5035064;28;20473;-62
2022/08/30 22:06:28;;;;;;;5.65;5.15;;;17.10;99.90;;;;;;5035642;28;20029;-64
2022/08/30 22:08:54;;;;;;;5.07;4.60;;;17.10;99.90;;;;;;5040829;28;20029;-66
2022/08/30 22:11:23;;;;;;;5.20;4.68;;;17.00;99.90;;;;;;5036436;28;20125;-62
2022/08/30 22:13:51;;;;;;;4.93;4.53;;;17.00;99.90;;;;;;5040491;28;20040;-65
2022/08/30 22:16:17;;;;;;;5.18;4.70;;;16.90;99.90;;;;;;5040218;28;20081;-64
2022/08/30 22:18:43;;;;;;;4.60;4.28;;;16.90;99.90;;;;;;5042583;28;20037;-61
2022/08/30 22:21:11;;;;;;;4.90;4.07;;;16.90;99.90;;;;;;5038617;28;20029;-60
2022/08/30 22:23:38;;;;;;;5.97;4.50;;;16.80;99.90;;;;;;5041655;28;20103;-60
2022/08/30 22:26:06;;;;;;;5.03;4.40;;;16.80;99.90;;;;;;5036418;28;20422;-65
2022/08/30 22:28:32;;;;;;;5.15;4.70;;;16.80;99.90;;;;;;5036976;28;20036;-59
2022/08/30 22:31:03;;;;;;;5.05;4.57;;;16.80;99.90;;;;;;5036790;28;20029;-63
2022/08/30 22:33:29;;;;;;;5.22;4.78;;;16.70;99.90;;;;;;5038367;28;20366;-61
2022/08/30 22:35:55;;;;;;;6.57;4.97;;;16.70;99.90;;;;;;5040762;28;20032;-61
2022/08/30 22:38:21;;;;;;;5.82;4.82;;;16.60;99.90;;;;;;5036987;28;20077;-61
2022/08/30 22:40:49;;;;;;;6.70;5.28;;;16.50;99.90;;;;;;5037036;28;20057;-61
2022/08/30 22:43:16;;;;;;;7.07;5.38;;;16.50;99.90;;;;;;5036235;28;20557;-64
2022/08/30 22:45:42;;;;;;;5.55;4.93;;;16.40;99.90;;;;;;5051662;28;20060;-60
2022/08/30 22:48:08;;;;;;;5.47;5.07;;;16.40;99.90;;;;;;5041492;28;20048;-60
2022/08/30 22:50:35;;;;;;;5.53;5.03;;;16.40;99.90;;;;;;5037218;28;20124;-60
2022/08/30 22:53:01;;;;;;;5.22;4.75;;;16.30;99.90;;;;;;5034427;28;20065;-65
2022/08/30 22:55:27;;;;;;;6.20;5.70;;;16.30;99.90;;;;;;5034419;28;20061;-65
2022/08/30 22:57:52;;;;;;;5.95;5.15;;;16.30;99.90;;;;;;5036084;28;20523;-68
2022/08/30 23:00:18;;;;;;;6.90;6.05;;;16.20;99.90;;;;;;5037327;28;20030;-60
2022/08/30 23:02:46;;;;;;;7.65;5.43;;;16.20;99.90;;;;;;5038059;28;20041;-61
2022/08/30 23:05:13;;;;;;;6.90;6.13;;;16.20;99.90;;;;;;5041812;28;20395;-59
2022/08/30 23:07:38;;;;;;;7.13;5.50;;;16.20;99.90;;;;;;5034449;28;20040;-60
2022/08/30 23:10:05;;;;;;;6.88;6.25;;;16.10;99.90;;;;;;5039386;28;20194;-62
2022/08/30 23:12:32;;;;;;;6.82;5.45;;;16.10;99.90;;;;;;5039103;28;20033;-60
2022/08/30 23:14:57;;;;;;;6.40;5.75;;;16.10;99.90;;;;;;5039761;28;20059;-60
2022/08/30 23:17:23;;;;;;;6.00;5.50;;;16.00;99.90;;;;;;5038557;28;20520;-61
2022/08/30 23:19:49;;;;;;;6.75;6.07;;;16.00;99.90;;;;;;5033906;28;20124;-59
2022/08/30 23:22:15;;;;;;;6.85;6.10;;;16.00;99.90;;;;;;5033703;28;20121;-59
